sensor_id;sensor_type;location;lat;lon;timestamp;P1;durP1;ratioP1;P2;durP2;ratioP2
73487;SDS011;61721;42.206;25.320;2023-02-01T00:02:01;4.60;;;3.15;;
73487;SDS011;61721;42.206;25.320;2023-02-01T00:04:29;4.57;;;2.95;;
73487;SDS011;61721;42.206;25.320;2023-02-01T00:06:57;5.90;;;3.17;;
73487;SDS011;61721;42.206;25.320;2023-02-01T00:09:24;4.45;;;2.83;;
73487;SDS011;61721;42.206;25.320;2023-02-01T00:11:52;5.10;;;3.35;;
73487;SDS011;61721;42.206;25.320;2023-02-01T00:14:20;4.38;;;2.53;;
73487;SDS011;61721;42.206;25.320;2023-02-01T00:16:47;4.63;;;3.38;;
73487;SDS011;61721;42.206;25.320;2023-02-01T00:19:15;9.32;;;5.55;;
73487;SDS011;61721;42.206;25.320;2023-02-01T00:21:42;5.88;;;3.55;;
73487;SDS011;61721;42.206;25.320;2023-02-01T00:24:10;5.22;;;2.95;;
73487;SDS011;61721;42.206;25.320;2023-02-01T00:26:38;4.68;;;2.80;;
73487;SDS011;61721;42.206;25.320;2023-02-01T00:29:10;5.38;;;3.05;;
73487;SDS011;61721;42.206;25.320;2023-02-01T00:31:39;5.03;;;3.05;;
73487;SDS011;61721;42.206;25.320;2023-02-01T00:34:06;4.57;;;3.28;;
73487;SDS011;61721;42.206;25.320;2023-02-01T00:36:35;6.03;;;3.40;;
73487;SDS011;61721;42.206;25.320;2023-02-01T00:39:02;12.50;;;3.47;;
73487;SDS011;61721;42.206;25.320;2023-02-01T00:41:29;5.28;;;3.38;;
73487;SDS011;61721;42.206;25.320;2023-02-01T00:43:56;5.32;;;3.10;;
73487;SDS011;61721;42.206;25.320;2023-02-01T00:46:25;5.68;;;3.22;;
73487;SDS011;61721;42.206;25.320;2023-02-01T00:48:52;5.13;;;3.40;;
73487;SDS011;61721;42.206;25.320;2023-02-01T00:51:20;4.32;;;3.08;;
73487;SDS011;61721;42.206;25.320;2023-02-01T00:53:49;5.45;;;3.33;;
73487;SDS011;61721;42.206;25.320;2023-02-01T00:56:16;5.63;;;3.08;;
73487;SDS011;61721;42.206;25.320;2023-02-01T00:58:44;6.35;;;3.47;;
73487;SDS011;61721;42.206;25.320;2023-02-01T01:01:13;5.90;;;3.20;;
73487;SDS011;61721;42.206;25.320;2023-02-01T01:03:44;4.65;;;2.83;;
73487;SDS011;61721;42.206;25.320;2023-02-01T01:06:13;5.70;;;3.55;;
73487;SDS011;61721;42.206;25.320;2023-02-01T01:08:41;5.95;;;3.47;;
73487;SDS011;61721;42.206;25.320;2023-02-01T01:11:11;4.60;;;3.38;;
73487;SDS011;61721;42.206;25.320;2023-02-01T01:13:41;6.60;;;3.38;;
73487;SDS011;61721;42.206;25.320;2023-02-01T01:16:08;7.25;;;3.28;;
73487;SDS011;61721;42.206;25.320;2023-02-01T01:18:37;4.88;;;3.45;;
73487;SDS011;61721;42.206;25.320;2023-02-01T01:21:06;6.25;;;4.03;;
73487;SDS011;61721;42.206;25.320;2023-02-01T01:23:36;4.25;;;2.92;;
73487;SDS011;61721;42.206;25.320;2023-02-01T01:26:07;5.75;;;3.53;;
73487;SDS011;61721;42.206;25.320;2023-02-01T01:28:35;6.68;;;3.50;;
73487;SDS011;61721;42.206;25.320;2023-02-01T01:31:02;4.55;;;3.03;;
73487;SDS011;61721;42.206;25.320;2023-02-01T01:33:29;4.70;;;3.15;;
73487;SDS011;61721;42.206;25.320;2023-02-01T01:35:57;6.90;;;3.28;;
73487;SDS011;61721;42.206;25.320;2023-02-01T01:38:25;5.55;;;3.20;;
73487;SDS011;61721;42.206;25.320;2023-02-01T01:40:52;6.15;;;3.95;;
73487;SDS011;61721;42.206;25.320;2023-02-01T01:43:20;5.25;;;3.53;;
73487;SDS011;61721;42.206;25.320;2023-02-01T01:45:47;3.70;;;2.53;;
73487;SDS011;61721;42.206;25.320;2023-02-01T01:48:16;5.45;;;3.70;;
73487;SDS011;61721;42.206;25.320;2023-02-01T01:50:47;6.53;;;3.88;;
73487;SDS011;61721;42.206;25.320;2023-02-01T01:53:18;5.70;;;2.85;;
73487;SDS011;61721;42.206;25.320;2023-02-01T01:55:52;4.60;;;2.88;;
73487;SDS011;61721;42.206;25.320;2023-02-01T01:58:23;5.10;;;3.13;;
73487;SDS011;61721;42.206;25.320;2023-02-01T02:00:52;5.07;;;3.75;;
73487;SDS011;61721;42.206;25.320;2023-02-01T02:03:21;10.90;;;4.22;;
73487;SDS011;61721;42.206;25.320;2023-02-01T02:05:52;4.25;;;2.65;;
73487;SDS011;61721;42.206;25.320;2023-02-01T02:08:21;5.63;;;3.50;;
73487;SDS011;61721;42.206;25.320;2023-02-01T02:10:52;4.82;;;3.30;;
73487;SDS011;61721;42.206;25.320;2023-02-01T02:13:26;4.82;;;2.97;;
73487;SDS011;61721;42.206;25.320;2023-02-01T02:15:58;4.72;;;3.30;;
73487;SDS011;61721;42.206;25.320;2023-02-01T02:18:38;5.30;;;3.40;;
73487;SDS011;61721;42.206;25.320;2023-02-01T02:21:17;8.32;;;3.70;;
73487;SDS011;61721;42.206;25.320;2023-02-01T02:27:17;4.70;;;3.30;;
73487;SDS011;61721;42.206;25.320;2023-02-01T02:29:59;7.57;;;4.32;;
73487;SDS011;61721;42.206;25.320;2023-02-01T02:35:50;5.38;;;4.00;;
73487;SDS011;61721;42.206;25.320;2023-02-01T02:38:29;9.93;;;4.30;;
73487;SDS011;61721;42.206;25.320;2023-02-01T02:41:02;5.90;;;3.67;;
73487;SDS011;61721;42.206;25.320;2023-02-01T02:43:35;6.93;;;4.03;;
73487;SDS011;61721;42.206;25.320;2023-02-01T02:46:28;8.18;;;3.70;;
73487;SDS011;61721;42.206;25.320;2023-02-01T02:49:21;8.55;;;4.70;;
73487;SDS011;61721;42.206;25.320;2023-02-01T02:51:56;7.55;;;3.53;;
73487;SDS011;61721;42.206;25.320;2023-02-01T02:54:46;6.90;;;3.47;;
73487;SDS011;61721;42.206;25.320;2023-02-01T02:57:18;4.82;;;3.17;;
73487;SDS011;61721;42.206;25.320;2023-02-01T03:00:07;8.00;;;3.40;;
73487;SDS011;61721;42.206;25.320;2023-02-01T03:02:54;5.68;;;3.53;;
73487;SDS011;61721;42.206;25.320;2023-02-01T03:05:43;5.78;;;3.22;;
73487;SDS011;61721;42.206;25.320;2023-02-01T03:08:12;9.00;;;5.75;;
73487;SDS011;61721;42.206;25.320;2023-02-01T03:10:42;6.60;;;3.70;;
73487;SDS011;61721;42.206;25.320;2023-02-01T03:13:17;4.90;;;3.28;;
73487;SDS011;61721;42.206;25.320;2023-02-01T03:15:51;5.18;;;3.28;;
73487;SDS011;61721;42.206;25.320;2023-02-01T03:18:25;4.45;;;3.00;;
73487;SDS011;61721;42.206;25.320;2023-02-01T03:20:58;5.13;;;3.42;;
73487;SDS011;61721;42.206;25.320;2023-02-01T03:23:31;3.92;;;3.00;;
73487;SDS011;61721;42.206;25.320;2023-02-01T03:26:01;5.20;;;3.25;;
73487;SDS011;61721;42.206;25.320;2023-02-01T03:28:31;5.10;;;3.08;;
73487;SDS011;61721;42.206;25.320;2023-02-01T03:31:00;4.32;;;2.70;;
73487;SDS011;61721;42.206;25.320;2023-02-01T03:33:28;4.65;;;3.10;;
73487;SDS011;61721;42.206;25.320;2023-02-01T03:36:02;4.78;;;3.22;;
73487;SDS011;61721;42.206;25.320;2023-02-01T03:38:38;5.68;;;3.33;;
73487;SDS011;61721;42.206;25.320;2023-02-01T03:41:11;5.97;;;3.75;;
73487;SDS011;61721;42.206;25.320;2023-02-01T03:43:46;5.45;;;3.35;;
73487;SDS011;61721;42.206;25.320;2023-02-01T03:46:20;4.40;;;2.75;;
73487;SDS011;61721;42.206;25.320;2023-02-01T03:48:54;4.57;;;3.42;;
73487;SDS011;61721;42.206;25.320;2023-02-01T03:51:29;5.22;;;3.72;;
73487;SDS011;61721;42.206;25.320;2023-02-01T03:53:57;4.63;;;3.13;;
73487;SDS011;61721;42.206;25.320;2023-02-01T03:56:27;4.32;;;2.80;;
73487;SDS011;61721;42.206;25.320;2023-02-01T03:58:56;4.00;;;2.35;;
73487;SDS011;61721;42.206;25.320;2023-02-01T04:01:27;4.88;;;2.55;;
73487;SDS011;61721;42.206;25.320;2023-02-01T04:03:56;5.05;;;2.55;;
73487;SDS011;61721;42.206;25.320;2023-02-01T04:06:24;4.50;;;3.17;;
73487;SDS011;61721;42.206;25.320;2023-02-01T04:08:52;5.07;;;3.03;;
73487;SDS011;61721;42.206;25.320;2023-02-01T04:11:20;5.47;;;3.20;;
73487;SDS011;61721;42.206;25.320;2023-02-01T04:13:47;5.43;;;3.05;;
73487;SDS011;61721;42.206;25.320;2023-02-01T04:16:14;5.22;;;3.42;;
73487;SDS011;61721;42.206;25.320;2023-02-01T04:18:41;5.60;;;3.38;;
73487;SDS011;61721;42.206;25.320;2023-02-01T04:21:08;5.15;;;3.83;;
73487;SDS011;61721;42.206;25.320;2023-02-01T04:23:36;4.00;;;2.88;;
73487;SDS011;61721;42.206;25.320;2023-02-01T04:26:04;4.78;;;2.75;;
73487;SDS011;61721;42.206;25.320;2023-02-01T04:28:32;6.18;;;3.00;;
73487;SDS011;61721;42.206;25.320;2023-02-01T04:30:59;6.00;;;3.10;;
73487;SDS011;61721;42.206;25.320;2023-02-01T04:33:26;5.55;;;2.60;;
73487;SDS011;61721;42.206;25.320;2023-02-01T04:35:54;7.88;;;4.40;;
73487;SDS011;61721;42.206;25.320;2023-02-01T04:38:21;11.43;;;5.40;;
73487;SDS011;61721;42.206;25.320;2023-02-01T04:40:48;8.10;;;4.22;;
73487;SDS011;61721;42.206;25.320;2023-02-01T04:43:17;6.47;;;3.97;;
73487;SDS011;61721;42.206;25.320;2023-02-01T04:45:47;6.78;;;3.47;;
73487;SDS011;61721;42.206;25.320;2023-02-01T04:48:15;5.82;;;4.22;;
73487;SDS011;61721;42.206;25.320;2023-02-01T04:50:43;7.93;;;4.55;;
73487;SDS011;61721;42.206;25.320;2023-02-01T04:53:12;6.47;;;3.22;;
73487;SDS011;61721;42.206;25.320;2023-02-01T04:55:40;10.77;;;6.28;;
73487;SDS011;61721;42.206;25.320;2023-02-01T04:58:08;13.60;;;7.63;;
73487;SDS011;61721;42.206;25.320;2023-02-01T05:00:37;5.88;;;4.15;;
73487;SDS011;61721;42.206;25.320;2023-02-01T05:03:04;19.02;;;9.02;;
73487;SDS011;61721;42.206;25.320;2023-02-01T05:05:31;24.10;;;9.40;;
73487;SDS011;61721;42.206;25.320;2023-02-01T05:07:59;17.83;;;7.40;;
73487;SDS011;61721;42.206;25.320;2023-02-01T05:10:26;15.05;;;7.55;;
73487;SDS011;61721;42.206;25.320;2023-02-01T05:12:53;7.28;;;4.40;;
73487;SDS011;61721;42.206;25.320;2023-02-01T05:15:39;4.50;;;3.20;;
73487;SDS011;61721;42.206;25.320;2023-02-01T05:18:06;7.47;;;3.08;;
73487;SDS011;61721;42.206;25.320;2023-02-01T05:20:33;5.38;;;3.45;;
73487;SDS011;61721;42.206;25.320;2023-02-01T05:23:00;5.03;;;3.00;;
73487;SDS011;61721;42.206;25.320;2023-02-01T05:25:27;10.45;;;4.78;;
73487;SDS011;61721;42.206;25.320;2023-02-01T05:27:55;9.75;;;4.80;;
73487;SDS011;61721;42.206;25.320;2023-02-01T05:30:22;6.95;;;4.85;;
73487;SDS011;61721;42.206;25.320;2023-02-01T05:32:51;6.20;;;4.00;;
73487;SDS011;61721;42.206;25.320;2023-02-01T05:35:18;7.95;;;4.38;;
73487;SDS011;61721;42.206;25.320;2023-02-01T05:37:46;6.03;;;4.28;;
73487;SDS011;61721;42.206;25.320;2023-02-01T05:40:13;9.35;;;4.88;;
73487;SDS011;61721;42.206;25.320;2023-02-01T05:42:40;7.97;;;4.55;;
73487;SDS011;61721;42.206;25.320;2023-02-01T05:45:08;12.48;;;5.28;;
73487;SDS011;61721;42.206;25.320;2023-02-01T05:47:36;10.98;;;4.78;;
73487;SDS011;61721;42.206;25.320;2023-02-01T05:50:06;7.35;;;4.53;;
73487;SDS011;61721;42.206;25.320;2023-02-01T05:52:33;8.57;;;4.10;;
73487;SDS011;61721;42.206;25.320;2023-02-01T05:55:01;7.43;;;4.32;;
73487;SDS011;61721;42.206;25.320;2023-02-01T05:57:28;14.27;;;3.70;;
73487;SDS011;61721;42.206;25.320;2023-02-01T05:59:55;7.60;;;3.45;;
73487;SDS011;61721;42.206;25.320;2023-02-01T06:02:22;4.78;;;2.95;;
73487;SDS011;61721;42.206;25.320;2023-02-01T06:04:49;5.25;;;3.35;;
73487;SDS011;61721;42.206;25.320;2023-02-01T06:07:18;7.22;;;4.15;;
73487;SDS011;61721;42.206;25.320;2023-02-01T06:09:45;8.73;;;4.03;;
73487;SDS011;61721;42.206;25.320;2023-02-01T06:12:12;6.25;;;3.25;;
73487;SDS011;61721;42.206;25.320;2023-02-01T06:14:40;5.15;;;3.90;;
73487;SDS011;61721;42.206;25.320;2023-02-01T06:17:08;11.07;;;8.13;;
73487;SDS011;61721;42.206;25.320;2023-02-01T06:19:36;8.52;;;5.43;;
73487;SDS011;61721;42.206;25.320;2023-02-01T06:22:05;6.35;;;4.70;;
73487;SDS011;61721;42.206;25.320;2023-02-01T06:24:34;7.78;;;4.50;;
73487;SDS011;61721;42.206;25.320;2023-02-01T06:27:01;6.45;;;4.00;;
73487;SDS011;61721;42.206;25.320;2023-02-01T06:29:28;5.00;;;3.05;;
73487;SDS011;61721;42.206;25.320;2023-02-01T06:31:55;6.07;;;4.00;;
73487;SDS011;61721;42.206;25.320;2023-02-01T06:34:23;7.20;;;3.60;;
73487;SDS011;61721;42.206;25.320;2023-02-01T06:36:50;5.05;;;3.60;;
73487;SDS011;61721;42.206;25.320;2023-02-01T06:39:17;6.55;;;4.00;;
73487;SDS011;61721;42.206;25.320;2023-02-01T06:41:47;10.65;;;3.53;;
73487;SDS011;61721;42.206;25.320;2023-02-01T06:44:14;14.85;;;8.23;;
73487;SDS011;61721;42.206;25.320;2023-02-01T06:46:42;7.20;;;4.80;;
73487;SDS011;61721;42.206;25.320;2023-02-01T06:49:09;6.55;;;4.75;;
73487;SDS011;61721;42.206;25.320;2023-02-01T06:51:36;5.57;;;4.35;;
73487;SDS011;61721;42.206;25.320;2023-02-01T06:54:03;9.00;;;5.38;;
73487;SDS011;61721;42.206;25.320;2023-02-01T06:56:31;6.40;;;4.28;;
73487;SDS011;61721;42.206;25.320;2023-02-01T06:58:59;8.45;;;4.68;;
73487;SDS011;61721;42.206;25.320;2023-02-01T07:01:30;9.68;;;5.38;;
73487;SDS011;61721;42.206;25.320;2023-02-01T07:03:57;8.73;;;5.43;;
73487;SDS011;61721;42.206;25.320;2023-02-01T07:06:24;7.40;;;5.40;;
73487;SDS011;61721;42.206;25.320;2023-02-01T07:08:52;8.95;;;5.43;;
73487;SDS011;61721;42.206;25.320;2023-02-01T07:11:21;7.90;;;5.70;;
73487;SDS011;61721;42.206;25.320;2023-02-01T07:13:48;8.25;;;5.07;;
73487;SDS011;61721;42.206;25.320;2023-02-01T07:16:18;10.55;;;6.00;;
73487;SDS011;61721;42.206;25.320;2023-02-01T07:18:46;8.20;;;4.50;;
73487;SDS011;61721;42.206;25.320;2023-02-01T07:21:13;6.75;;;4.97;;
73487;SDS011;61721;42.206;25.320;2023-02-01T07:23:40;7.25;;;4.32;;
73487;SDS011;61721;42.206;25.320;2023-02-01T07:26:09;7.45;;;5.13;;
73487;SDS011;61721;42.206;25.320;2023-02-01T07:28:38;9.98;;;6.00;;
73487;SDS011;61721;42.206;25.320;2023-02-01T07:31:06;14.52;;;7.22;;
73487;SDS011;61721;42.206;25.320;2023-02-01T07:33:36;18.45;;;8.95;;
73487;SDS011;61721;42.206;25.320;2023-02-01T07:36:04;8.25;;;4.25;;
73487;SDS011;61721;42.206;25.320;2023-02-01T07:38:32;9.75;;;4.85;;
73487;SDS011;61721;42.206;25.320;2023-02-01T07:41:02;10.85;;;3.97;;
73487;SDS011;61721;42.206;25.320;2023-02-01T07:43:31;25.60;;;12.48;;
73487;SDS011;61721;42.206;25.320;2023-02-01T07:45:59;11.73;;;5.43;;
73487;SDS011;61721;42.206;25.320;2023-02-01T07:48:27;10.18;;;7.07;;
73487;SDS011;61721;42.206;25.320;2023-02-01T07:51:00;9.40;;;4.80;;
73487;SDS011;61721;42.206;25.320;2023-02-01T07:53:28;7.25;;;4.38;;
73487;SDS011;61721;42.206;25.320;2023-02-01T07:55:57;8.30;;;4.90;;
73487;SDS011;61721;42.206;25.320;2023-02-01T07:58:24;7.63;;;4.82;;
73487;SDS011;61721;42.206;25.320;2023-02-01T08:00:52;7.45;;;4.85;;
73487;SDS011;61721;42.206;25.320;2023-02-01T08:03:37;10.90;;;7.03;;
73487;SDS011;61721;42.206;25.320;2023-02-01T08:06:06;7.55;;;3.78;;
73487;SDS011;61721;42.206;25.320;2023-02-01T08:08:33;6.45;;;3.65;;
73487;SDS011;61721;42.206;25.320;2023-02-01T08:11:00;7.70;;;4.20;;
73487;SDS011;61721;42.206;25.320;2023-02-01T08:13:29;7.22;;;4.55;;
73487;SDS011;61721;42.206;25.320;2023-02-01T08:15:57;11.50;;;6.50;;
73487;SDS011;61721;42.206;25.320;2023-02-01T08:18:25;6.35;;;3.25;;
73487;SDS011;61721;42.206;25.320;2023-02-01T08:20:52;5.25;;;3.00;;
73487;SDS011;61721;42.206;25.320;2023-02-01T08:23:21;14.25;;;5.90;;
73487;SDS011;61721;42.206;25.320;2023-02-01T08:25:49;8.02;;;3.40;;
73487;SDS011;61721;42.206;25.320;2023-02-01T08:28:16;9.52;;;2.58;;
73487;SDS011;61721;42.206;25.320;2023-02-01T08:30:44;7.45;;;3.28;;
73487;SDS011;61721;42.206;25.320;2023-02-01T08:33:11;4.45;;;1.98;;
73487;SDS011;61721;42.206;25.320;2023-02-01T08:35:38;8.32;;;3.25;;
73487;SDS011;61721;42.206;25.320;2023-02-01T08:38:05;8.00;;;2.85;;
73487;SDS011;61721;42.206;25.320;2023-02-01T08:40:34;7.32;;;2.70;;
73487;SDS011;61721;42.206;25.320;2023-02-01T08:43:01;5.03;;;2.10;;
73487;SDS011;61721;42.206;25.320;2023-02-01T08:45:28;7.38;;;2.80;;
73487;SDS011;61721;42.206;25.320;2023-02-01T08:47:56;4.43;;;2.13;;
73487;SDS011;61721;42.206;25.320;2023-02-01T08:50:24;5.35;;;2.08;;
73487;SDS011;61721;42.206;25.320;2023-02-01T08:52:52;9.38;;;3.08;;
73487;SDS011;61721;42.206;25.320;2023-02-01T08:55:20;9.18;;;3.67;;
73487;SDS011;61721;42.206;25.320;2023-02-01T08:57:48;6.80;;;3.15;;
73487;SDS011;61721;42.206;25.320;2023-02-01T09:00:16;11.77;;;7.10;;
73487;SDS011;61721;42.206;25.320;2023-02-01T09:02:44;17.77;;;7.32;;
73487;SDS011;61721;42.206;25.320;2023-02-01T09:05:12;34.00;;;13.77;;
73487;SDS011;61721;42.206;25.320;2023-02-01T09:07:41;33.20;;;15.13;;
73487;SDS011;61721;42.206;25.320;2023-02-01T09:10:09;13.65;;;6.93;;
73487;SDS011;61721;42.206;25.320;2023-02-01T09:12:37;11.32;;;6.57;;
73487;SDS011;61721;42.206;25.320;2023-02-01T09:15:06;6.22;;;2.50;;
73487;SDS011;61721;42.206;25.320;2023-02-01T09:20:02;5.65;;;2.92;;
73487;SDS011;61721;42.206;25.320;2023-02-01T09:22:30;6.53;;;2.97;;
73487;SDS011;61721;42.206;25.320;2023-02-01T09:24:57;6.03;;;2.83;;
73487;SDS011;61721;42.206;25.320;2023-02-01T09:27:24;34.55;;;12.52;;
73487;SDS011;61721;42.206;25.320;2023-02-01T09:29:51;32.55;;;13.23;;
73487;SDS011;61721;42.206;25.320;2023-02-01T09:32:20;12.88;;;7.70;;
73487;SDS011;61721;42.206;25.320;2023-02-01T09:34:48;6.88;;;4.47;;
73487;SDS011;61721;42.206;25.320;2023-02-01T09:37:16;6.13;;;3.10;;
73487;SDS011;61721;42.206;25.320;2023-02-01T09:39:44;9.05;;;2.78;;
73487;SDS011;61721;42.206;25.320;2023-02-01T09:42:16;4.28;;;1.98;;
73487;SDS011;61721;42.206;25.320;2023-02-01T09:45:01;6.72;;;3.15;;
73487;SDS011;61721;42.206;25.320;2023-02-01T09:47:38;6.20;;;3.20;;
73487;SDS011;61721;42.206;25.320;2023-02-01T09:50:13;7.72;;;3.92;;
73487;SDS011;61721;42.206;25.320;2023-02-01T09:52:46;11.20;;;3.72;;
73487;SDS011;61721;42.206;25.320;2023-02-01T09:55:20;5.88;;;3.67;;
73487;SDS011;61721;42.206;25.320;2023-02-01T09:57:55;6.72;;;2.85;;
73487;SDS011;61721;42.206;25.320;2023-02-01T10:00:27;10.25;;;4.25;;
73487;SDS011;61721;42.206;25.320;2023-02-01T10:02:58;6.78;;;3.53;;
73487;SDS011;61721;42.206;25.320;2023-02-01T10:05:30;6.80;;;2.55;;
73487;SDS011;61721;42.206;25.320;2023-02-01T10:08:13;4.22;;;2.17;;
73487;SDS011;61721;42.206;25.320;2023-02-01T10:10:50;4.40;;;2.20;;
73487;SDS011;61721;42.206;25.320;2023-02-01T10:13:21;4.75;;;1.75;;
73487;SDS011;61721;42.206;25.320;2023-02-01T10:16:15;17.95;;;4.53;;
73487;SDS011;61721;42.206;25.320;2023-02-01T10:21:51;15.25;;;5.53;;
73487;SDS011;61721;42.206;25.320;2023-02-01T10:27:16;10.48;;;3.88;;
73487;SDS011;61721;42.206;25.320;2023-02-01T10:29:47;12.45;;;5.15;;
73487;SDS011;61721;42.206;25.320;2023-02-01T10:32:21;6.00;;;2.67;;
73487;SDS011;61721;42.206;25.320;2023-02-01T10:34:55;7.13;;;2.60;;
73487;SDS011;61721;42.206;25.320;2023-02-01T10:37:26;7.60;;;2.80;;
73487;SDS011;61721;42.206;25.320;2023-02-01T10:39:57;6.95;;;2.50;;
73487;SDS011;61721;42.206;25.320;2023-02-01T10:42:26;6.63;;;2.38;;
73487;SDS011;61721;42.206;25.320;2023-02-01T10:44:56;6.22;;;2.05;;
73487;SDS011;61721;42.206;25.320;2023-02-01T10:47:26;9.48;;;2.60;;
73487;SDS011;61721;42.206;25.320;2023-02-01T10:49:57;3.67;;;2.40;;
73487;SDS011;61721;42.206;25.320;2023-02-01T10:52:40;3.67;;;1.88;;
73487;SDS011;61721;42.206;25.320;2023-02-01T10:55:29;4.10;;;2.00;;
73487;SDS011;61721;42.206;25.320;2023-02-01T10:58:00;5.03;;;2.70;;
73487;SDS011;61721;42.206;25.320;2023-02-01T11:00:29;7.72;;;2.70;;
73487;SDS011;61721;42.206;25.320;2023-02-01T11:03:21;13.18;;;4.05;;
73487;SDS011;61721;42.206;25.320;2023-02-01T11:05:58;9.10;;;2.85;;
73487;SDS011;61721;42.206;25.320;2023-02-01T11:08:26;6.40;;;3.00;;
73487;SDS011;61721;42.206;25.320;2023-02-01T11:10:57;6.10;;;2.90;;
73487;SDS011;61721;42.206;25.320;2023-02-01T11:13:29;5.00;;;1.70;;
73487;SDS011;61721;42.206;25.320;2023-02-01T11:16:01;4.57;;;1.58;;
73487;SDS011;61721;42.206;25.320;2023-02-01T11:18:31;4.70;;;2.00;;
73487;SDS011;61721;42.206;25.320;2023-02-01T11:21:03;5.75;;;2.00;;
73487;SDS011;61721;42.206;25.320;2023-02-01T11:23:32;4.50;;;2.15;;
73487;SDS011;61721;42.206;25.320;2023-02-01T11:26:07;4.75;;;2.00;;
73487;SDS011;61721;42.206;25.320;2023-02-01T11:28:38;6.30;;;2.20;;
73487;SDS011;61721;42.206;25.320;2023-02-01T11:31:09;6.32;;;2.42;;
73487;SDS011;61721;42.206;25.320;2023-02-01T11:33:41;5.85;;;1.98;;
73487;SDS011;61721;42.206;25.320;2023-02-01T11:36:16;3.53;;;1.40;;
73487;SDS011;61721;42.206;25.320;2023-02-01T11:38:46;7.10;;;1.73;;
73487;SDS011;61721;42.206;25.320;2023-02-01T11:41:22;4.28;;;2.53;;
73487;SDS011;61721;42.206;25.320;2023-02-01T11:43:51;5.97;;;2.20;;
73487;SDS011;61721;42.206;25.320;2023-02-01T11:46:22;5.90;;;2.97;;
73487;SDS011;61721;42.206;25.320;2023-02-01T11:48:55;4.63;;;1.48;;
73487;SDS011;61721;42.206;25.320;2023-02-01T11:51:34;4.78;;;1.50;;
73487;SDS011;61721;42.206;25.320;2023-02-01T11:54:16;7.93;;;3.40;;
73487;SDS011;61721;42.206;25.320;2023-02-01T11:57:00;5.70;;;2.60;;
73487;SDS011;61721;42.206;25.320;2023-02-01T11:59:48;9.07;;;4.13;;
73487;SDS011;61721;42.206;25.320;2023-02-01T12:02:39;7.07;;;3.10;;
73487;SDS011;61721;42.206;25.320;2023-02-01T12:05:26;8.27;;;3.63;;
73487;SDS011;61721;42.206;25.320;2023-02-01T12:08:06;9.93;;;4.85;;
73487;SDS011;61721;42.206;25.320;2023-02-01T12:10:53;8.73;;;4.03;;
73487;SDS011;61721;42.206;25.320;2023-02-01T12:13:33;18.02;;;5.35;;
73487;SDS011;61721;42.206;25.320;2023-02-01T12:16:12;16.40;;;4.80;;
73487;SDS011;61721;42.206;25.320;2023-02-01T12:19:03;16.95;;;6.15;;
73487;SDS011;61721;42.206;25.320;2023-02-01T12:21:54;17.60;;;5.93;;
73487;SDS011;61721;42.206;25.320;2023-02-01T12:25:03;8.80;;;3.83;;
73487;SDS011;61721;42.206;25.320;2023-02-01T12:30:45;5.18;;;3.50;;
73487;SDS011;61721;42.206;25.320;2023-02-01T12:33:26;8.48;;;3.45;;
73487;SDS011;61721;42.206;25.320;2023-02-01T12:36:07;13.68;;;2.25;;
73487;SDS011;61721;42.206;25.320;2023-02-01T12:38:51;5.10;;;1.58;;
73487;SDS011;61721;42.206;25.320;2023-02-01T12:44:19;4.00;;;1.40;;
73487;SDS011;61721;42.206;25.320;2023-02-01T12:46:56;3.05;;;1.30;;
73487;SDS011;61721;42.206;25.320;2023-02-01T12:49:30;3.20;;;1.55;;
73487;SDS011;61721;42.206;25.320;2023-02-01T12:52:10;4.60;;;1.77;;
73487;SDS011;61721;42.206;25.320;2023-02-01T12:54:42;5.57;;;1.67;;
73487;SDS011;61721;42.206;25.320;2023-02-01T12:57:15;7.20;;;1.83;;
73487;SDS011;61721;42.206;25.320;2023-02-01T12:59:47;3.42;;;1.38;;
73487;SDS011;61721;42.206;25.320;2023-02-01T13:02:22;5.28;;;1.70;;
73487;SDS011;61721;42.206;25.320;2023-02-01T13:04:56;4.00;;;1.67;;
73487;SDS011;61721;42.206;25.320;2023-02-01T13:07:30;2.72;;;1.00;;
73487;SDS011;61721;42.206;25.320;2023-02-01T13:10:02;5.18;;;1.15;;
73487;SDS011;61721;42.206;25.320;2023-02-01T13:12:43;5.20;;;1.17;;
73487;SDS011;61721;42.206;25.320;2023-02-01T13:15:17;4.07;;;1.52;;
73487;SDS011;61721;42.206;25.320;2023-02-01T13:17:54;4.18;;;1.33;;
73487;SDS011;61721;42.206;25.320;2023-02-01T13:20:28;4.05;;;1.45;;
73487;SDS011;61721;42.206;25.320;2023-02-01T13:23:01;3.67;;;1.15;;
73487;SDS011;61721;42.206;25.320;2023-02-01T13:25:34;4.03;;;1.27;;
73487;SDS011;61721;42.206;25.320;2023-02-01T13:28:12;12.75;;;1.95;;
73487;SDS011;61721;42.206;25.320;2023-02-01T13:30:55;6.95;;;1.58;;
73487;SDS011;61721;42.206;25.320;2023-02-01T13:33:43;5.50;;;2.50;;
73487;SDS011;61721;42.206;25.320;2023-02-01T13:36:34;5.97;;;2.20;;
73487;SDS011;61721;42.206;25.320;2023-02-01T13:39:27;4.88;;;1.67;;
73487;SDS011;61721;42.206;25.320;2023-02-01T13:42:13;3.70;;;1.75;;
73487;SDS011;61721;42.206;25.320;2023-02-01T13:44:45;5.40;;;1.77;;
73487;SDS011;61721;42.206;25.320;2023-02-01T13:47:21;6.30;;;2.15;;
73487;SDS011;61721;42.206;25.320;2023-02-01T13:49:53;8.95;;;2.80;;
73487;SDS011;61721;42.206;25.320;2023-02-01T13:52:27;10.48;;;3.80;;
73487;SDS011;61721;42.206;25.320;2023-02-01T13:55:03;12.77;;;5.22;;
73487;SDS011;61721;42.206;25.320;2023-02-01T13:57:42;12.68;;;4.10;;
73487;SDS011;61721;42.206;25.320;2023-02-01T14:00:24;9.52;;;3.45;;
73487;SDS011;61721;42.206;25.320;2023-02-01T14:03:02;10.90;;;2.30;;
73487;SDS011;61721;42.206;25.320;2023-02-01T14:05:57;3.35;;;1.70;;
73487;SDS011;61721;42.206;25.320;2023-02-01T14:08:39;7.25;;;1.50;;
73487;SDS011;61721;42.206;25.320;2023-02-01T14:26:14;5.05;;;2.10;;
73487;SDS011;61721;42.206;25.320;2023-02-01T14:28:49;4.85;;;2.00;;
73487;SDS011;61721;42.206;25.320;2023-02-01T14:31:30;5.72;;;1.80;;
73487;SDS011;61721;42.206;25.320;2023-02-01T14:34:01;3.42;;;1.73;;
73487;SDS011;61721;42.206;25.320;2023-02-01T14:36:41;4.70;;;2.60;;
73487;SDS011;61721;42.206;25.320;2023-02-01T14:39:23;5.60;;;1.70;;
73487;SDS011;61721;42.206;25.320;2023-02-01T14:41:57;7.03;;;2.85;;
73487;SDS011;61721;42.206;25.320;2023-02-01T14:44:28;4.10;;;1.40;;
73487;SDS011;61721;42.206;25.320;2023-02-01T14:55:50;4.15;;;1.80;;
73487;SDS011;61721;42.206;25.320;2023-02-01T14:58:23;3.58;;;1.40;;
73487;SDS011;61721;42.206;25.320;2023-02-01T15:00:59;4.75;;;2.05;;
73487;SDS011;61721;42.206;25.320;2023-02-01T15:06:13;5.97;;;1.40;;
73487;SDS011;61721;42.206;25.320;2023-02-01T15:08:47;4.22;;;1.63;;
73487;SDS011;61721;42.206;25.320;2023-02-01T15:11:16;5.10;;;1.83;;
73487;SDS011;61721;42.206;25.320;2023-02-01T15:13:47;4.55;;;1.60;;
73487;SDS011;61721;42.206;25.320;2023-02-01T15:16:18;3.80;;;1.42;;
73487;SDS011;61721;42.206;25.320;2023-02-01T15:18:47;11.43;;;1.85;;
73487;SDS011;61721;42.206;25.320;2023-02-01T15:21:16;6.78;;;2.15;;
73487;SDS011;61721;42.206;25.320;2023-02-01T15:23:45;6.35;;;1.80;;
73487;SDS011;61721;42.206;25.320;2023-02-01T15:26:28;7.03;;;2.28;;
73487;SDS011;61721;42.206;25.320;2023-02-01T15:28:56;5.25;;;1.65;;
73487;SDS011;61721;42.206;25.320;2023-02-01T15:31:31;5.05;;;2.30;;
73487;SDS011;61721;42.206;25.320;2023-02-01T15:34:00;7.13;;;2.63;;
73487;SDS011;61721;42.206;25.320;2023-02-01T15:36:27;7.30;;;2.67;;
73487;SDS011;61721;42.206;25.320;2023-02-01T15:39:14;6.63;;;2.85;;
73487;SDS011;61721;42.206;25.320;2023-02-01T15:41:50;8.40;;;3.17;;
73487;SDS011;61721;42.206;25.320;2023-02-01T15:44:21;6.78;;;2.78;;
73487;SDS011;61721;42.206;25.320;2023-02-01T15:46:58;6.18;;;3.00;;
73487;SDS011;61721;42.206;25.320;2023-02-01T15:49:32;4.22;;;2.10;;